createdAt,value
2023-01-23T00:00:19.188Z,0
2023-01-23T00:01:19.265Z,0
2023-01-23T00:02:19.380Z,0
2023-01-23T00:03:19.388Z,0
2023-01-23T00:04:19.632Z,0
2023-01-23T00:05:19.079Z,0
2023-01-23T00:06:18.935Z,0
2023-01-23T00:07:19.021Z,0
2023-01-23T00:08:18.877Z,0
2023-01-23T00:09:19.006Z,0
2023-01-23T00:10:19.204Z,0
2023-01-23T00:11:18.822Z,0
2023-01-23T00:12:48.274Z,0
2023-01-23T00:13:18.495Z,0
2023-01-23T00:14:18.740Z,0
2023-01-23T00:15:18.721Z,0
2023-01-23T00:16:18.873Z,0
2023-01-23T00:17:18.435Z,0
2023-01-23T00:18:17.908Z,0
2023-01-23T00:19:18.263Z,0
2023-01-23T00:20:18.635Z,0
2023-01-23T00:21:18.961Z,0
2023-01-23T00:22:21.160Z,0
2023-01-23T00:23:24.780Z,0
2023-01-23T00:24:18.658Z,0
2023-01-23T00:25:18.460Z,0
2023-01-23T00:26:18.638Z,0
2023-01-23T00:27:18.737Z,0
2023-01-23T00:28:17.951Z,0
2023-01-23T00:29:18.211Z,0
2023-01-23T00:30:18.771Z,0
2023-01-23T00:31:18.846Z,0
2023-01-23T00:32:18.389Z,0
2023-01-23T00:33:18.362Z,0
2023-01-23T00:34:18.359Z,0
2023-01-23T00:35:17.974Z,0
2023-01-23T00:36:17.799Z,0
2023-01-23T00:37:18.377Z,0
2023-01-23T00:38:18.285Z,0
2023-01-23T00:39:17.959Z,0
2023-01-23T00:40:18.613Z,0
2023-01-23T00:41:18.585Z,0
2023-01-23T00:42:18.062Z,0
2023-01-23T00:43:18.136Z,0
2023-01-23T00:44:18.205Z,0
2023-01-23T00:45:18.191Z,0
2023-01-23T00:46:18.648Z,0
2023-01-23T00:47:17.812Z,0
2023-01-23T00:48:17.785Z,0
2023-01-23T00:49:18.048Z,0
2023-01-23T00:50:18.214Z,0
2023-01-23T00:51:18.492Z,0
2023-01-23T00:52:18.058Z,0
2023-01-23T00:53:18.339Z,0
2023-01-23T00:54:18.192Z,0
2023-01-23T00:55:17.905Z,0
2023-01-23T00:56:18.022Z,0
2023-01-23T00:57:18.232Z,0
2023-01-23T00:58:17.976Z,0
2023-01-23T00:59:18.075Z,0
2023-01-23T01:00:18.125Z,0
2023-01-23T01:01:17.970Z,0
2023-01-23T01:02:17.510Z,0
2023-01-23T01:03:17.528Z,0
2023-01-23T01:04:17.726Z,0
2023-01-23T01:05:17.441Z,0
2023-01-23T01:06:17.684Z,0
2023-01-23T01:07:18.028Z,0
2023-01-23T01:08:17.136Z,0
2023-01-23T01:09:17.992Z,0
2023-01-23T01:10:17.528Z,0
2023-01-23T01:11:17.320Z,0
2023-01-23T01:12:17.947Z,0
2023-01-23T01:13:17.924Z,0
2023-01-23T01:14:17.629Z,0
2023-01-23T01:15:17.495Z,0
2023-01-23T01:16:18.086Z,0
2023-01-23T01:17:16.939Z,0
2023-01-23T01:18:17.206Z,0
2023-01-23T01:19:17.494Z,0
2023-01-23T01:20:17.681Z,0
2023-01-23T01:21:16.655Z,0
2023-01-23T01:22:17.352Z,0
2023-01-23T01:23:16.942Z,0
2023-01-23T01:24:17.057Z,0
2023-01-23T01:25:17.666Z,0
2023-01-23T01:26:17.564Z,0
2023-01-23T01:27:17.502Z,0
2023-01-23T01:28:17.684Z,0
2023-01-23T01:29:17.333Z,0
2023-01-23T01:30:17.526Z,0
2023-01-23T01:31:17.797Z,0
2023-01-23T01:32:17.173Z,0
2023-01-23T01:34:17.136Z,0
2023-01-23T01:35:17.455Z,0
2023-01-23T01:36:16.831Z,0
2023-01-23T01:37:17.683Z,0
2023-01-23T01:38:18.161Z,0
2023-01-23T01:39:18.285Z,0
2023-01-23T01:40:18.197Z,0
2023-01-23T01:41:18.055Z,0
2023-01-23T01:42:18.081Z,0
2023-01-23T01:43:18.077Z,0
2023-01-23T01:44:18.158Z,0
2023-01-23T01:45:17.638Z,0
2023-01-23T01:46:17.821Z,0
2023-01-23T01:47:17.733Z,0
2023-01-23T01:48:17.698Z,0
2023-01-23T01:49:17.204Z,0
2023-01-23T01:50:19.923Z,0
2023-01-23T01:51:17.839Z,0
2023-01-23T01:52:17.631Z,0
2023-01-23T01:53:17.843Z,0
2023-01-23T01:54:17.575Z,0
2023-01-23T01:55:17.419Z,0
2023-01-23T01:56:17.038Z,0
2023-01-23T01:57:17.882Z,0
2023-01-23T01:58:17.491Z,0
2023-01-23T01:59:17.218Z,0
2023-01-23T02:00:17.807Z,0
2023-01-23T02:01:17.883Z,0
2023-01-23T02:02:17.666Z,0
2023-01-23T02:03:17.127Z,0
2023-01-23T02:04:17.353Z,0
2023-01-23T02:05:16.879Z,0
2023-01-23T02:06:16.828Z,0
2023-01-23T02:07:17.329Z,0
2023-01-23T02:08:17.333Z,0
2023-01-23T02:09:17.547Z,0
2023-01-23T02:10:17.505Z,0
2023-01-23T02:11:17.616Z,0
2023-01-23T02:12:17.350Z,0
2023-01-23T02:13:17.330Z,0
2023-01-23T02:14:16.925Z,0
2023-01-23T02:15:16.892Z,0
2023-01-23T02:16:17.789Z,0
2023-01-23T02:17:16.981Z,0
2023-01-23T02:18:17.295Z,0
2023-01-23T02:19:16.831Z,0
2023-01-23T02:20:17.573Z,0
2023-01-23T02:21:17.048Z,0
2023-01-23T02:22:16.736Z,0
2023-01-23T02:23:16.723Z,0
2023-01-23T02:24:16.721Z,0
2023-01-23T02:25:16.702Z,0
2023-01-23T02:26:16.938Z,0
2023-01-23T02:27:17.032Z,0
2023-01-23T02:28:16.613Z,0
2023-01-23T02:29:17.471Z,0
2023-01-23T02:30:17.227Z,0
2023-01-23T02:31:17.833Z,0
2023-01-23T02:32:17.053Z,0
2023-01-23T02:33:16.893Z,0
2023-01-23T02:34:16.716Z,0
2023-01-23T02:35:16.758Z,0
2023-01-23T02:36:16.719Z,0
2023-01-23T02:37:16.695Z,0
2023-01-23T02:38:16.679Z,0
2023-01-23T02:39:16.471Z,0
2023-01-23T02:40:17.029Z,0
2023-01-23T02:41:16.638Z,0
2023-01-23T02:42:16.858Z,0
2023-01-23T02:43:16.691Z,0
2023-01-23T02:44:16.569Z,0
2023-01-23T02:45:16.640Z,0
2023-01-23T02:46:16.977Z,0
2023-01-23T02:47:16.221Z,0
2023-01-23T02:48:16.598Z,0
2023-01-23T02:49:16.851Z,0
2023-01-23T02:50:17.087Z,0
2023-01-23T02:51:16.814Z,0
2023-01-23T02:52:16.681Z,0
2023-01-23T02:53:15.870Z,0
2023-01-23T02:54:16.604Z,0
2023-01-23T02:55:16.081Z,0
2023-01-23T02:56:16.067Z,0
2023-01-23T02:57:16.306Z,0
2023-01-23T02:58:16.262Z,0
2023-01-23T02:59:16.378Z,0
2023-01-23T03:00:16.504Z,0
2023-01-23T03:01:16.351Z,0
2023-01-23T03:02:16.711Z,0
2023-01-23T03:03:15.659Z,0
2023-01-23T03:04:16.289Z,0
2023-01-23T03:05:16.595Z,0
2023-01-23T03:06:15.707Z,0
2023-01-23T03:07:16.091Z,0
2023-01-23T03:08:16.315Z,0
2023-01-23T03:09:15.798Z,0
2023-01-23T03:10:16.020Z,0
2023-01-23T03:11:16.009Z,0
2023-01-23T03:12:16.263Z,0
2023-01-23T03:13:16.236Z,0
2023-01-23T03:14:15.947Z,0
2023-01-23T03:15:16.038Z,0
2023-01-23T03:16:16.176Z,0
2023-01-23T03:17:16.134Z,0
2023-01-23T03:18:15.901Z,0
2023-01-23T03:19:16.424Z,0
2023-01-23T03:20:16.201Z,0
2023-01-23T03:21:15.909Z,0
2023-01-23T03:22:16.144Z,0
2023-01-23T03:23:16.015Z,0
2023-01-23T03:24:15.837Z,0
2023-01-23T03:25:15.452Z,0
2023-01-23T03:26:15.682Z,0
2023-01-23T03:27:15.695Z,0
2023-01-23T03:28:15.399Z,0
2023-01-23T03:29:15.379Z,0
2023-01-23T03:30:16.082Z,0
2023-01-23T03:31:15.790Z,0
2023-01-23T03:32:15.586Z,0
2023-01-23T03:33:15.937Z,0
2023-01-23T03:50:18.034Z,0
2023-01-23T03:51:17.246Z,0
2023-01-23T03:52:16.734Z,0
2023-01-23T03:53:16.705Z,0
2023-01-23T03:54:17.207Z,0
2023-01-23T03:55:16.991Z,0
2023-01-23T03:56:16.897Z,0
2023-01-23T03:57:17.153Z,0
2023-01-23T03:58:16.601Z,0
2023-01-23T03:59:17.095Z,0
2023-01-23T04:00:16.623Z,0
2023-01-23T04:01:17.220Z,0
2023-01-23T04:02:16.526Z,0
2023-01-23T04:03:16.696Z,0
2023-01-23T04:04:17.003Z,0
2023-01-23T04:05:16.734Z,0
2023-01-23T04:06:17.554Z,0
2023-01-23T04:07:16.933Z,0
2023-01-23T04:08:16.162Z,0
2023-01-23T04:09:16.882Z,0
2023-01-23T04:10:20.805Z,0
2023-01-23T04:11:16.359Z,0
2023-01-23T04:12:16.557Z,0
2023-01-23T04:13:16.301Z,0
2023-01-23T04:14:16.790Z,0
2023-01-23T04:15:16.571Z,0
2023-01-23T04:16:16.402Z,0
2023-01-23T04:17:16.760Z,0
2023-01-23T04:18:15.931Z,0
2023-01-23T04:19:16.425Z,0
2023-01-23T04:20:16.178Z,0
2023-01-23T04:21:16.379Z,0
2023-01-23T04:22:17.200Z,0
2023-01-23T04:23:16.629Z,0
2023-01-23T04:24:16.045Z,0
2023-01-23T04:25:16.073Z,0
2023-01-23T04:26:16.009Z,0
2023-01-23T04:27:16.288Z,0
2023-01-23T04:28:16.260Z,0
2023-01-23T04:29:15.475Z,0
2023-01-23T04:30:15.457Z,0
2023-01-23T04:31:17.158Z,0
2023-01-23T04:32:16.435Z,0
2023-01-23T04:33:15.911Z,0
2023-01-23T04:34:16.400Z,0
2023-01-23T04:35:15.846Z,0
2023-01-23T04:36:16.137Z,0
2023-01-23T04:37:16.335Z,0
2023-01-23T04:38:16.961Z,0
2023-01-23T04:39:16.032Z,0
2023-01-23T04:40:16.052Z,0
2023-01-23T04:41:15.997Z,0
2023-01-23T04:42:15.509Z,0
2023-01-23T04:43:16.226Z,0
2023-01-23T04:44:15.933Z,0
2023-01-23T04:45:15.917Z,0
2023-01-23T04:46:16.388Z,0
2023-01-23T04:47:15.875Z,0
2023-01-23T04:48:15.879Z,0
2023-01-23T04:49:15.836Z,0
2023-01-23T04:50:16.128Z,0
2023-01-23T04:51:15.903Z,0
2023-01-23T04:52:16.023Z,0
2023-01-23T04:53:15.770Z,0
2023-01-23T04:54:16.592Z,0
2023-01-23T04:55:15.710Z,0
2023-01-23T04:56:15.682Z,0
2023-01-23T04:57:15.670Z,0
2023-01-23T04:58:15.126Z,0
2023-01-23T04:59:15.101Z,0
2023-01-23T05:00:15.358Z,0
2023-01-23T05:01:15.928Z,0
2023-01-23T05:02:15.614Z,0
2023-01-23T05:03:15.542Z,0
2023-01-23T05:04:15.284Z,0
2023-01-23T05:05:15.762Z,0
2023-01-23T05:06:15.933Z,0
2023-01-23T05:07:15.435Z,0
2023-01-23T05:08:15.687Z,0
2023-01-23T05:09:14.913Z,0
2023-01-23T05:10:16.171Z,0
2023-01-23T05:11:15.390Z,0
2023-01-23T05:12:15.346Z,0
2023-01-23T05:13:15.650Z,0
2023-01-23T05:14:15.586Z,0
2023-01-23T05:15:15.565Z,0
2023-01-23T05:16:15.465Z,0
2023-01-23T05:17:15.011Z,0
2023-01-23T05:18:15.512Z,0
2023-01-23T05:19:15.193Z,0
2023-01-23T05:20:15.196Z,0
2023-01-23T05:21:14.911Z,0
2023-01-23T05:22:15.161Z,0
2023-01-23T05:23:15.149Z,0
2023-01-23T05:24:15.134Z,0
2023-01-23T05:25:15.330Z,0
2023-01-23T05:26:15.952Z,0
2023-01-23T05:27:15.311Z,0
2023-01-23T05:28:18.733Z,0
2023-01-23T05:29:14.731Z,0
2023-01-23T05:30:14.982Z,0
2023-01-23T05:31:16.141Z,0
2023-01-23T05:32:14.951Z,0
2023-01-23T05:33:14.641Z,0
2023-01-23T05:34:14.884Z,0
2023-01-23T05:35:14.691Z,0
2023-01-23T05:36:16.447Z,0
2023-01-23T05:37:14.827Z,0
2023-01-23T05:38:14.787Z,0
2023-01-23T05:39:15.047Z,0
2023-01-23T05:40:14.777Z,0
2023-01-23T05:41:14.733Z,0
2023-01-23T05:42:15.649Z,0
2023-01-23T05:43:14.477Z,0
2023-01-23T05:44:14.423Z,0
2023-01-23T05:45:14.659Z,0
2023-01-23T05:46:14.938Z,0
2023-01-23T05:47:15.028Z,0
2023-01-23T05:48:15.028Z,0
2023-01-23T05:49:15.004Z,0
2023-01-23T05:50:14.971Z,0
2023-01-23T05:51:15.296Z,0
2023-01-23T05:52:14.939Z,0
2023-01-23T05:53:14.680Z,0
2023-01-23T05:54:15.139Z,0
2023-01-23T05:55:15.121Z,0
2023-01-23T05:56:15.109Z,0
2023-01-23T05:57:14.562Z,0
2023-01-23T05:58:18.433Z,0
2023-01-23T05:59:14.927Z,0
2023-01-23T06:00:14.771Z,0
2023-01-23T06:01:14.789Z,0
2023-01-23T06:02:14.515Z,0
2023-01-23T06:03:14.765Z,0
2023-01-23T06:04:14.705Z,0
2023-01-23T06:05:14.380Z,0
2023-01-23T06:06:14.352Z,0
2023-01-23T06:07:14.859Z,0
2023-01-23T06:08:14.873Z,0
2023-01-23T06:09:14.563Z,0
2023-01-23T06:10:16.581Z,0
2023-01-23T06:11:14.561Z,0
2023-01-23T06:12:14.089Z,0
2023-01-23T06:13:14.726Z,0
2023-01-23T06:14:15.331Z,0
2023-01-23T06:15:14.687Z,0
2023-01-23T06:16:17.693Z,0
2023-01-23T06:17:14.399Z,0
2023-01-23T06:18:14.968Z,0
2023-01-23T06:19:14.091Z,0
2023-01-23T06:20:14.345Z,0
2023-01-23T06:21:14.312Z,0
2023-01-23T06:22:14.271Z,0
2023-01-23T06:23:13.737Z,0
2023-01-23T06:24:13.984Z,0
2023-01-23T06:25:15.027Z,0
2023-01-23T06:26:14.231Z,0
2023-01-23T06:27:14.951Z,0
2023-01-23T06:28:14.186Z,0
2023-01-23T06:29:14.923Z,0
2023-01-23T06:30:15.540Z,0
2023-01-23T06:31:15.666Z,0
2023-01-23T06:32:14.619Z,0
2023-01-23T06:33:14.332Z,0
2023-01-23T06:34:14.807Z,0
2023-01-23T06:35:14.527Z,0
2023-01-23T06:36:14.082Z,0
2023-01-23T06:37:14.507Z,0
2023-01-23T06:38:14.731Z,0
2023-01-23T06:39:14.450Z,0
2023-01-23T06:40:14.441Z,0
2023-01-23T06:41:14.684Z,0
2023-01-23T06:42:14.401Z,0
2023-01-23T06:43:14.363Z,0
2023-01-23T06:44:14.349Z,0
2023-01-23T06:45:14.076Z,0
2023-01-23T06:46:15.691Z,0
2023-01-23T06:47:14.034Z,0
2023-01-23T06:48:14.025Z,0
2023-01-23T06:49:15.755Z,0
2023-01-23T06:50:15.431Z,0
2023-01-23T06:51:15.264Z,0
2023-01-23T06:52:15.143Z,0
2023-01-23T06:53:15.103Z,0
2023-01-23T06:54:14.835Z,0
2023-01-23T06:55:16.971Z,0
2023-01-23T06:56:15.082Z,0
2023-01-23T06:57:14.779Z,0
2023-01-23T06:58:15.015Z,0
2023-01-23T06:59:15.276Z,0
2023-01-23T07:00:14.825Z,0
2023-01-23T07:01:15.575Z,0
2023-01-23T07:02:16.111Z,0
2023-01-23T07:03:15.465Z,0
2023-01-23T07:04:14.939Z,5
2023-01-23T07:05:15.169Z,5
2023-01-23T07:06:14.640Z,5
2023-01-23T07:07:15.147Z,5
2023-01-23T07:08:15.382Z,5
2023-01-23T07:09:15.132Z,5
2023-01-23T07:10:14.829Z,5
2023-01-23T07:11:15.080Z,5
2023-01-23T07:12:15.071Z,5
2023-01-23T07:13:15.082Z,5
2023-01-23T07:14:15.268Z,5
2023-01-23T07:15:14.977Z,5
2023-01-23T07:16:15.134Z,5
2023-01-23T07:17:15.183Z,5
2023-01-23T07:18:15.728Z,10
2023-01-23T07:19:14.919Z,10
2023-01-23T07:20:14.652Z,10
2023-01-23T07:21:14.860Z,10
2023-01-23T07:22:15.086Z,10
2023-01-23T07:23:14.828Z,10
2023-01-23T07:24:14.818Z,15
2023-01-23T07:25:14.517Z,15
2023-01-23T07:26:14.985Z,15
2023-01-23T07:27:14.724Z,15
2023-01-23T07:28:14.948Z,15
2023-01-23T07:29:14.681Z,15
2023-01-23T07:30:14.686Z,15
2023-01-23T07:31:15.465Z,15
2023-01-23T07:32:18.037Z,15
2023-01-23T07:33:14.098Z,15
2023-01-23T07:34:15.355Z,20
2023-01-23T07:35:14.644Z,20
2023-01-23T07:36:14.540Z,25
2023-01-23T07:37:14.846Z,25
2023-01-23T07:38:14.041Z,25
2023-01-23T07:39:14.764Z,25
2023-01-23T07:40:14.724Z,25
2023-01-23T07:41:14.516Z,25
2023-01-23T07:42:14.694Z,30
2023-01-23T07:43:14.707Z,30
2023-01-23T07:44:13.888Z,30
2023-01-23T07:45:13.862Z,30
2023-01-23T07:46:14.629Z,30
2023-01-23T07:47:14.089Z,30
2023-01-23T07:48:14.305Z,30
2023-01-23T07:49:14.577Z,30
2023-01-23T07:50:15.296Z,30
2023-01-23T07:51:14.584Z,35
2023-01-23T07:52:14.384Z,35
2023-01-23T07:53:14.134Z,35
2023-01-23T07:54:14.338Z,35
2023-01-23T07:55:14.317Z,35
2023-01-23T07:56:14.022Z,35
2023-01-23T07:57:14.534Z,40
2023-01-23T07:58:14.511Z,40
2023-01-23T07:59:14.627Z,35
2023-01-23T08:00:13.995Z,35
2023-01-23T08:01:14.737Z,35
2023-01-23T08:02:13.944Z,35
2023-01-23T08:03:14.150Z,35
2023-01-23T08:04:14.356Z,35
2023-01-23T08:05:14.373Z,40
2023-01-23T08:06:14.942Z,40
2023-01-23T08:07:13.842Z,40
2023-01-23T08:08:22.715Z,40
2023-01-23T08:09:14.060Z,40
2023-01-23T08:10:13.781Z,45
2023-01-23T08:11:14.036Z,45
2023-01-23T08:12:14.239Z,45
2023-01-23T08:13:13.705Z,45
2023-01-23T08:14:13.462Z,45
2023-01-23T08:15:13.660Z,45
2023-01-23T08:16:16.603Z,45
2023-01-23T08:17:14.231Z,45
2023-01-23T08:18:14.170Z,45
2023-01-23T08:19:14.128Z,45
2023-01-23T08:20:14.141Z,45
2023-01-23T08:21:13.806Z,50
2023-01-23T08:22:14.642Z,50
2023-01-23T08:23:13.784Z,50
2023-01-23T08:24:13.743Z,50
2023-01-23T08:25:13.239Z,50
2023-01-23T08:26:13.780Z,50
2023-01-23T08:27:14.782Z,50
2023-01-23T08:28:13.713Z,50
2023-01-23T08:29:13.629Z,50
2023-01-23T08:30:13.428Z,50
2023-01-23T08:31:16.973Z,50
2023-01-23T08:32:13.783Z,50
2023-01-23T08:33:13.864Z,50
2023-01-23T08:34:13.567Z,50
2023-01-23T08:35:13.963Z,50
2023-01-23T08:36:16.106Z,50
2023-01-23T08:37:13.788Z,50
2023-01-23T08:38:14.417Z,50
2023-01-23T08:39:13.701Z,50
2023-01-23T08:40:13.753Z,50
2023-01-23T08:41:13.492Z,50
2023-01-23T08:42:12.903Z,45
2023-01-23T08:43:13.104Z,50
2023-01-23T08:44:13.333Z,50
2023-01-23T08:45:13.310Z,50
2023-01-23T08:46:13.312Z,50
2023-01-23T08:47:13.575Z,50
2023-01-23T08:48:13.351Z,50
2023-01-23T08:49:16.005Z,50
2023-01-23T08:50:12.683Z,50
2023-01-23T08:51:13.842Z,55
2023-01-23T08:52:13.274Z,55
2023-01-23T08:53:12.923Z,55
2023-01-23T08:54:14.021Z,55
2023-01-23T08:55:12.940Z,55
2023-01-23T08:56:14.971Z,60
2023-01-23T08:57:13.361Z,60
2023-01-23T08:58:13.321Z,60
2023-01-23T08:59:13.112Z,60
2023-01-23T09:00:13.016Z,65
2023-01-23T09:01:13.662Z,60
2023-01-23T09:02:13.095Z,65
2023-01-23T09:03:15.877Z,65
2023-01-23T09:04:13.001Z,65
2023-01-23T09:05:12.674Z,65
2023-01-23T09:06:13.241Z,65
2023-01-23T09:07:12.389Z,70
2023-01-23T09:08:12.868Z,70
2023-01-23T09:09:12.846Z,70
2023-01-23T09:10:13.620Z,65
2023-01-23T09:11:13.082Z,65
2023-01-23T09:12:12.841Z,70
2023-01-23T09:13:13.051Z,70
2023-01-23T09:14:12.752Z,70
2023-01-23T09:15:12.727Z,70
2023-01-23T09:16:13.232Z,70
2023-01-23T09:17:12.693Z,70
2023-01-23T09:18:12.700Z,70
2023-01-23T09:19:12.708Z,70
2023-01-23T09:20:12.374Z,70
2023-01-23T09:21:15.829Z,80
2023-01-23T09:22:12.607Z,75
2023-01-23T09:23:12.587Z,70
2023-01-23T09:24:12.843Z,75
2023-01-23T09:25:12.815Z,70
2023-01-23T09:26:13.386Z,65
2023-01-23T09:27:12.269Z,60
2023-01-23T09:28:12.739Z,60
2023-01-23T09:29:12.741Z,65
2023-01-23T09:30:12.425Z,65
2023-01-23T09:31:12.539Z,65
2023-01-23T09:32:12.559Z,65
2023-01-23T09:33:12.400Z,60
2023-01-23T09:34:11.856Z,65
2023-01-23T09:35:12.608Z,70
2023-01-23T09:36:11.855Z,75
2023-01-23T09:37:12.569Z,75
2023-01-23T09:38:12.324Z,80
2023-01-23T09:39:12.302Z,75
2023-01-23T09:40:11.991Z,75
2023-01-23T09:41:11.982Z,85
2023-01-23T09:42:15.830Z,90
2023-01-23T09:43:12.441Z,90
2023-01-23T09:44:11.946Z,90
2023-01-23T09:45:12.156Z,90
2023-01-23T09:46:12.568Z,95
2023-01-23T09:47:11.945Z,100
2023-01-23T09:48:12.326Z,100
2023-01-23T09:49:12.350Z,100
2023-01-23T09:50:12.114Z,100
2023-01-23T09:51:12.358Z,105
2023-01-23T09:52:12.265Z,110
2023-01-23T09:53:11.760Z,115
2023-01-23T09:54:11.723Z,120
2023-01-23T09:55:11.988Z,110
2023-01-23T09:56:11.673Z,105
2023-01-23T09:57:11.663Z,105
2023-01-23T09:58:12.569Z,110
2023-01-23T09:59:12.187Z,110
2023-01-23T10:00:11.843Z,115
2023-01-23T10:01:12.012Z,125
2023-01-23T10:02:11.592Z,125
2023-01-23T10:03:11.816Z,125
2023-01-23T10:04:12.204Z,130
2023-01-23T10:05:11.784Z,135
2023-01-23T10:06:11.729Z,135
2023-01-23T10:07:11.984Z,135
2023-01-23T10:08:11.712Z,135
2023-01-23T10:09:11.702Z,135
2023-01-23T10:10:14.210Z,135
2023-01-23T10:11:11.393Z,135
2023-01-23T10:12:11.897Z,135
2023-01-23T10:13:11.590Z,135
2023-01-23T10:14:12.874Z,135
2023-01-23T10:15:11.296Z,135
2023-01-23T10:16:11.592Z,140
2023-01-23T10:17:11.292Z,140
2023-01-23T10:18:11.275Z,140
2023-01-23T10:19:11.285Z,155
2023-01-23T10:20:11.756Z,170
2023-01-23T10:21:11.572Z,175
2023-01-23T10:22:19.704Z,180
2023-01-23T10:23:11.419Z,170
2023-01-23T10:24:11.427Z,155
2023-01-23T10:25:11.451Z,160
2023-01-23T10:26:11.641Z,155
2023-01-23T10:27:11.591Z,150
2023-01-23T10:28:13.016Z,150
2023-01-23T10:29:11.598Z,150
2023-01-23T10:30:12.233Z,145
2023-01-23T10:31:12.057Z,150
2023-01-23T10:32:11.260Z,155
2023-01-23T10:33:11.524Z,150
2023-01-23T10:34:14.612Z,155
2023-01-23T10:35:11.497Z,155
2023-01-23T10:36:12.496Z,170
2023-01-23T10:37:10.971Z,170
2023-01-23T10:38:11.059Z,165
2023-01-23T10:39:11.112Z,170
2023-01-23T10:40:10.599Z,165
2023-01-23T10:41:10.842Z,165
2023-01-23T10:42:12.505Z,170
2023-01-23T10:43:11.298Z,170
2023-01-23T10:44:11.037Z,165
2023-01-23T10:45:10.754Z,175
2023-01-23T10:46:12.267Z,180
2023-01-23T10:47:11.270Z,185
2023-01-23T10:48:18.821Z,190
2023-01-23T10:49:10.460Z,175
2023-01-23T10:50:11.367Z,175
2023-01-23T10:51:11.212Z,195
2023-01-23T10:52:10.675Z,185
2023-01-23T10:53:10.843Z,165
2023-01-23T10:54:34.028Z,160
2023-01-23T10:55:11.105Z,165
2023-01-23T10:56:11.072Z,160
2023-01-23T10:57:10.878Z,165
2023-01-23T10:58:10.265Z,160
2023-01-23T10:59:10.521Z,160
2023-01-23T11:00:11.027Z,160
2023-01-23T11:01:11.417Z,160
2023-01-23T11:02:12.421Z,155
2023-01-23T11:03:10.674Z,150
2023-01-23T11:04:10.397Z,150
2023-01-23T11:05:10.453Z,150
2023-01-23T11:06:10.902Z,150
2023-01-23T11:07:10.389Z,155
2023-01-23T11:08:10.350Z,160
2023-01-23T11:09:10.308Z,165
2023-01-23T11:10:10.341Z,165
2023-01-23T11:11:10.261Z,175
2023-01-23T11:12:10.526Z,175
2023-01-23T11:13:10.533Z,170
2023-01-23T11:14:10.734Z,165
2023-01-23T11:15:10.464Z,160
2023-01-23T11:16:10.813Z,160
2023-01-23T11:17:10.147Z,160
2023-01-23T11:18:11.342Z,155
2023-01-23T11:19:10.673Z,160
2023-01-23T11:20:10.101Z,160
2023-01-23T11:21:10.357Z,160
2023-01-23T11:22:10.303Z,165
2023-01-23T11:23:10.045Z,160
2023-01-23T11:24:12.292Z,155
2023-01-23T11:25:10.512Z,155
2023-01-23T11:26:10.245Z,145
2023-01-23T11:27:10.234Z,140
2023-01-23T11:28:09.955Z,145
2023-01-23T11:29:12.403Z,150
2023-01-23T11:30:10.375Z,155
2023-01-23T11:31:24.199Z,145
2023-01-23T11:32:10.943Z,145
2023-01-23T11:33:10.195Z,145
2023-01-23T11:34:11.045Z,145
2023-01-23T11:35:12.152Z,140
2023-01-23T11:36:09.794Z,135
2023-01-23T11:37:10.026Z,130
2023-01-23T11:38:09.764Z,120
2023-01-23T11:39:10.120Z,115
2023-01-23T11:40:10.247Z,115
2023-01-23T11:41:09.722Z,115
2023-01-23T11:42:10.234Z,105
2023-01-23T11:43:10.196Z,95
2023-01-23T11:44:18.359Z,90
2023-01-23T11:45:09.705Z,90
2023-01-23T11:46:10.717Z,95
2023-01-23T11:47:10.391Z,95
2023-01-23T11:48:10.642Z,95
2023-01-23T11:49:09.821Z,95
2023-01-23T11:50:11.229Z,95
2023-01-23T11:51:10.869Z,95
2023-01-23T11:52:10.042Z,95
2023-01-23T11:53:10.040Z,110
2023-01-23T11:54:10.880Z,125
2023-01-23T11:55:10.224Z,130
2023-01-23T11:56:10.482Z,140
2023-01-23T11:57:09.676Z,140
2023-01-23T11:58:09.919Z,135
2023-01-23T11:59:10.616Z,140
2023-01-23T12:00:10.134Z,145
2023-01-23T12:01:10.383Z,145
2023-01-23T12:02:14.426Z,145
2023-01-23T12:03:10.687Z,145
2023-01-23T12:04:10.256Z,145
2023-01-23T12:05:09.557Z,140
2023-01-23T12:06:28.945Z,135
2023-01-23T12:07:10.268Z,130
2023-01-23T12:08:09.734Z,125
2023-01-23T12:09:10.228Z,115
2023-01-23T12:10:10.220Z,110
2023-01-23T12:11:09.933Z,100
2023-01-23T12:12:10.272Z,100
2023-01-23T12:13:09.880Z,95
2023-01-23T12:14:10.052Z,100
2023-01-23T12:15:09.596Z,105
2023-01-23T12:16:10.132Z,105
2023-01-23T12:17:10.129Z,105
2023-01-23T12:18:09.266Z,105
2023-01-23T12:19:09.775Z,105
2023-01-23T12:20:09.809Z,105
2023-01-23T12:21:09.775Z,100
2023-01-23T12:22:10.539Z,105
2023-01-23T12:23:09.820Z,115
2023-01-23T12:24:09.692Z,115
2023-01-23T12:25:09.448Z,120
2023-01-23T12:26:09.389Z,125
2023-01-23T12:27:09.685Z,130
2023-01-23T12:28:09.381Z,130
2023-01-23T12:29:10.894Z,125
2023-01-23T12:30:09.608Z,125
2023-01-23T12:31:12.846Z,125
2023-01-23T12:32:10.251Z,120
2023-01-23T12:33:09.518Z,120
2023-01-23T12:34:09.519Z,115
2023-01-23T12:35:09.528Z,105
2023-01-23T12:36:09.477Z,110
2023-01-23T12:37:37.165Z,115
2023-01-23T12:38:09.532Z,115
2023-01-23T12:39:09.396Z,125
2023-01-23T12:40:11.848Z,125
2023-01-23T12:41:08.850Z,120
2023-01-23T12:42:09.377Z,110
2023-01-23T12:43:09.127Z,105
2023-01-23T12:44:09.567Z,95
2023-01-23T12:45:09.321Z,95
2023-01-23T12:46:09.345Z,95
2023-01-23T12:47:09.848Z,95
2023-01-23T12:48:10.197Z,95
2023-01-23T12:49:09.231Z,95
2023-01-23T12:50:08.947Z,95
2023-01-23T12:51:10.272Z,110
2023-01-23T12:52:09.273Z,110
2023-01-23T12:53:09.914Z,115
2023-01-23T12:54:09.530Z,115
2023-01-23T12:55:09.739Z,120
2023-01-23T12:56:09.492Z,130
2023-01-23T12:57:09.567Z,130
2023-01-23T12:58:18.018Z,145
2023-01-23T12:59:09.001Z,145
2023-01-23T13:00:09.268Z,145
2023-01-23T13:01:09.479Z,150
2023-01-23T13:02:08.805Z,145
2023-01-23T13:03:08.996Z,140
2023-01-23T13:04:08.953Z,130
2023-01-23T13:05:08.942Z,120
2023-01-23T13:06:09.186Z,110
2023-01-23T13:07:09.220Z,120
2023-01-23T13:08:08.623Z,115
2023-01-23T13:09:26.410Z,110
2023-01-23T13:10:09.175Z,110
2023-01-23T13:11:08.558Z,110
2023-01-23T13:12:09.029Z,105
2023-01-23T13:13:08.753Z,100
2023-01-23T13:14:10.460Z,105
2023-01-23T13:15:42.415Z,105
2023-01-23T13:16:08.709Z,105
2023-01-23T13:17:08.602Z,100
2023-01-23T13:18:08.515Z,100
2023-01-23T13:19:08.384Z,95
2023-01-23T13:20:09.225Z,90
2023-01-23T13:21:08.394Z,90
2023-01-23T13:22:16.175Z,90
2023-01-23T13:23:08.812Z,90
2023-01-23T13:24:08.604Z,90
2023-01-23T13:25:09.324Z,85
2023-01-23T13:26:08.965Z,90
2023-01-23T13:27:09.904Z,95
2023-01-23T13:28:08.827Z,100
2023-01-23T13:29:08.812Z,100
2023-01-23T13:30:08.740Z,100
2023-01-23T13:31:08.628Z,100
2023-01-23T13:32:09.243Z,100
2023-01-23T13:33:08.691Z,100
2023-01-23T13:34:24.375Z,95
2023-01-23T13:35:08.129Z,90
2023-01-23T13:36:08.414Z,95
2023-01-23T13:37:08.027Z,90
2023-01-23T13:38:08.534Z,90
2023-01-23T13:39:08.003Z,90
2023-01-23T13:40:16.361Z,80
2023-01-23T13:41:08.476Z,80
2023-01-23T13:42:08.602Z,80
2023-01-23T13:43:08.177Z,70
2023-01-23T13:44:08.479Z,70
2023-01-23T13:45:07.927Z,65
2023-01-23T13:46:08.636Z,60
2023-01-23T13:47:07.822Z,55
2023-01-23T13:48:08.337Z,55
2023-01-23T13:49:08.166Z,55
2023-01-23T13:50:08.130Z,50
2023-01-23T13:51:07.767Z,45
2023-01-23T13:52:07.531Z,45
2023-01-23T13:53:08.226Z,45
2023-01-23T13:54:07.683Z,45
2023-01-23T13:55:08.195Z,40
2023-01-23T13:56:08.481Z,40
2023-01-23T13:57:08.195Z,40
2023-01-23T13:58:08.203Z,40
2023-01-23T13:59:08.231Z,40
2023-01-23T14:00:07.954Z,40
2023-01-23T14:01:07.890Z,40
2023-01-23T14:02:07.537Z,40
2023-01-23T14:03:07.260Z,40
2023-01-23T14:04:07.746Z,40
2023-01-23T14:05:07.999Z,40
2023-01-23T14:06:07.769Z,40
2023-01-23T14:07:07.461Z,45
2023-01-23T14:08:07.691Z,45
2023-01-23T14:09:07.402Z,45
2023-01-23T14:10:07.514Z,50
2023-01-23T14:11:07.911Z,55
2023-01-23T14:12:08.347Z,55
2023-01-23T14:13:07.584Z,55
2023-01-23T14:14:07.954Z,55
2023-01-23T14:15:07.576Z,50
2023-01-23T14:16:07.299Z,50
2023-01-23T14:17:07.587Z,45
2023-01-23T14:18:07.232Z,45
2023-01-23T14:19:07.725Z,45
2023-01-23T14:20:07.440Z,45
2023-01-23T14:21:07.683Z,40
2023-01-23T14:22:07.613Z,40
2023-01-23T14:23:07.632Z,40
2023-01-23T14:24:07.790Z,40
2023-01-23T14:25:07.156Z,40
2023-01-23T14:26:07.336Z,40
2023-01-23T14:27:28.210Z,40
2023-01-23T14:28:07.561Z,45
2023-01-23T14:29:07.562Z,45
2023-01-23T14:30:07.488Z,45
2023-01-23T14:31:07.567Z,45
2023-01-23T14:32:07.425Z,45
2023-01-23T14:33:07.479Z,50
2023-01-23T14:34:22.621Z,50
2023-01-23T14:35:07.172Z,45
2023-01-23T14:36:06.937Z,45
2023-01-23T14:37:07.460Z,40
2023-01-23T14:38:07.429Z,40
2023-01-23T14:39:06.329Z,40
2023-01-23T14:40:40.290Z,45